createdAt,value
2022-10-06T00:01:10.828Z,5.40
2022-10-06T00:03:38.565Z,5.13
2022-10-06T00:06:06.323Z,5.45
2022-10-06T00:08:34.136Z,5.65
2022-10-06T00:11:01.294Z,5.85
2022-10-06T00:13:29.097Z,5.38
2022-10-06T00:15:56.670Z,5.10
2022-10-06T00:18:23.852Z,5.15
2022-10-06T00:20:54.981Z,5.57
2022-10-06T00:23:22.226Z,6.00
2022-10-06T00:25:49.554Z,5.50
2022-10-06T00:28:16.952Z,5.45
2022-10-06T00:30:46.122Z,6.18
2022-10-06T00:33:17.862Z,6.22
2022-10-06T00:35:45.427Z,6.70
2022-10-06T00:38:14.035Z,5.88
2022-10-06T00:40:48.146Z,6.00
2022-10-06T00:43:33.898Z,5.75
2022-10-06T00:46:01.425Z,6.35
2022-10-06T00:48:29.752Z,5.47
2022-10-06T00:50:58.258Z,6.28
2022-10-06T00:53:27.644Z,6.57
2022-10-06T00:55:54.698Z,4.93
2022-10-06T00:58:22.486Z,6.18
2022-10-06T01:00:54.060Z,6.25
2022-10-06T01:03:39.514Z,5.82
2022-10-06T01:06:07.284Z,5.88
2022-10-06T01:08:34.738Z,6.60
2022-10-06T01:11:02.184Z,5.70
2022-10-06T01:13:30.126Z,5.63
2022-10-06T01:16:02.855Z,5.93
2022-10-06T01:18:31.474Z,5.70
2022-10-06T01:21:06.665Z,5.43
2022-10-06T01:23:34.376Z,5.57
2022-10-06T01:26:03.107Z,5.45
2022-10-06T01:28:30.410Z,6.07
2022-10-06T01:30:58.186Z,5.43
2022-10-06T01:33:25.281Z,5.70
2022-10-06T01:35:52.969Z,5.85
2022-10-06T01:38:21.852Z,5.20
2022-10-06T01:40:51.904Z,4.80
2022-10-06T01:43:19.035Z,4.80
2022-10-06T01:45:46.154Z,5.82
2022-10-06T01:48:13.188Z,5.68
2022-10-06T01:50:41.739Z,5.97
2022-10-06T01:53:08.743Z,5.47
2022-10-06T01:55:36.193Z,6.47
2022-10-06T01:58:03.354Z,5.80
2022-10-06T02:00:30.603Z,7.32
2022-10-06T02:02:58.235Z,6.50
2022-10-06T02:05:25.303Z,6.13
2022-10-06T02:07:52.396Z,6.18
2022-10-06T02:10:19.488Z,6.28
2022-10-06T02:12:50.737Z,6.35
2022-10-06T02:15:17.934Z,6.82
2022-10-06T02:17:44.993Z,5.90
2022-10-06T02:20:12.042Z,7.13
2022-10-06T02:22:39.637Z,6.93
2022-10-06T02:25:07.277Z,6.90
2022-10-06T02:27:34.353Z,6.18
2022-10-06T02:30:01.596Z,7.15
2022-10-06T02:32:35.772Z,7.38
2022-10-06T02:35:03.764Z,6.53
2022-10-06T02:37:31.397Z,6.35
2022-10-06T02:39:58.422Z,7.10
2022-10-06T02:42:25.509Z,7.30
2022-10-06T02:44:52.651Z,7.93
2022-10-06T02:47:22.152Z,6.53
2022-10-06T02:49:49.195Z,6.25
2022-10-06T02:52:16.268Z,6.65
2022-10-06T02:54:43.339Z,6.15
2022-10-06T02:57:10.554Z,7.80
2022-10-06T02:59:37.604Z,6.65
2022-10-06T03:02:04.745Z,7.30
2022-10-06T03:04:32.034Z,6.28
2022-10-06T03:06:59.145Z,7.88
2022-10-06T03:09:26.255Z,7.00
2022-10-06T03:11:53.329Z,7.30
2022-10-06T03:14:22.025Z,6.55
2022-10-06T03:16:51.552Z,7.88
2022-10-06T03:19:18.663Z,6.97
2022-10-06T03:21:45.749Z,7.60
2022-10-06T03:24:13.076Z,7.63
2022-10-06T03:26:41.167Z,7.18
2022-10-06T03:29:11.535Z,5.68
2022-10-06T03:31:39.410Z,4.95
2022-10-06T03:34:06.641Z,4.65
2022-10-06T03:36:34.371Z,3.88
2022-10-06T03:39:02.992Z,4.45
2022-10-06T03:41:32.207Z,3.38
2022-10-06T03:43:59.986Z,2.72
2022-10-06T03:46:28.342Z,2.00
2022-10-06T03:48:57.128Z,1.15
2022-10-06T03:51:32.381Z,1.23
2022-10-06T03:53:59.879Z,0.80
2022-10-06T03:56:28.469Z,1.08
2022-10-06T03:58:56.970Z,0.80
2022-10-06T04:01:44.458Z,0.57
2022-10-06T04:04:12.723Z,0.65
2022-10-06T04:06:41.433Z,0.60
2022-10-06T04:09:14.783Z,0.80
2022-10-06T04:11:42.993Z,0.77
2022-10-06T04:14:11.119Z,0.70
2022-10-06T04:16:39.288Z,1.13
2022-10-06T04:19:07.496Z,0.73
2022-10-06T04:21:38.298Z,0.77
2022-10-06T04:24:06.577Z,0.95
2022-10-06T04:26:35.787Z,1.20
2022-10-06T04:29:02.968Z,0.82
2022-10-06T04:31:31.283Z,1.42
2022-10-06T04:33:59.526Z,0.70
2022-10-06T04:36:27.840Z,1.38
2022-10-06T04:38:58.710Z,1.20
2022-10-06T04:41:28.481Z,0.95
2022-10-06T04:44:08.944Z,0.77
2022-10-06T04:46:44.819Z,1.42
2022-10-06T04:49:19.019Z,0.95
2022-10-06T04:51:46.914Z,0.80
2022-10-06T04:54:14.288Z,1.30
2022-10-06T04:56:41.427Z,0.90
2022-10-06T04:59:08.505Z,1.40
2022-10-06T05:01:36.467Z,1.10
2022-10-06T05:04:04.187Z,1.17
2022-10-06T05:06:32.601Z,1.13
2022-10-06T05:09:01.385Z,0.90
2022-10-06T05:11:29.334Z,0.75
2022-10-06T05:13:57.514Z,1.08
2022-10-06T05:16:25.319Z,1.30
2022-10-06T05:18:54.785Z,0.70
2022-10-06T05:21:23.176Z,1.10
2022-10-06T05:23:50.293Z,1.35
2022-10-06T05:26:19.474Z,1.10
2022-10-06T05:28:46.829Z,0.80
2022-10-06T05:31:19.596Z,1.13
2022-10-06T05:33:46.654Z,1.33
2022-10-06T05:36:17.564Z,1.58
2022-10-06T05:38:45.089Z,1.17
2022-10-06T05:41:13.513Z,1.30
2022-10-06T05:43:41.142Z,1.65
2022-10-06T05:46:09.853Z,0.90
2022-10-06T05:48:36.964Z,1.00
2022-10-06T05:51:05.514Z,1.30
2022-10-06T05:53:33.755Z,1.20
2022-10-06T05:56:12.844Z,1.40
2022-10-06T05:58:41.057Z,1.40
2022-10-06T06:01:09.202Z,0.95
2022-10-06T06:03:36.315Z,1.83
2022-10-06T06:06:03.707Z,1.27
2022-10-06T06:08:31.317Z,1.33
2022-10-06T06:11:05.676Z,0.98
2022-10-06T06:13:32.753Z,2.45
2022-10-06T06:16:00.474Z,2.33
2022-10-06T06:18:28.890Z,2.58
2022-10-06T06:21:00.039Z,3.33
2022-10-06T06:23:31.513Z,3.15
2022-10-06T06:26:02.413Z,3.20
2022-10-06T06:28:30.894Z,3.08
2022-10-06T06:31:05.113Z,3.00
2022-10-06T06:33:32.280Z,2.63
2022-10-06T06:36:01.176Z,2.30
2022-10-06T06:38:28.735Z,2.13
2022-10-06T06:40:56.224Z,1.63
2022-10-06T06:43:23.376Z,1.73
2022-10-06T06:45:50.534Z,1.83
2022-10-06T06:48:18.458Z,1.88
2022-10-06T06:50:45.811Z,1.45
2022-10-06T06:53:16.317Z,1.63
2022-10-06T06:55:52.978Z,1.30
2022-10-06T06:58:20.858Z,1.52
2022-10-06T07:00:50.899Z,1.45
2022-10-06T07:03:55.480Z,2.00
2022-10-06T07:06:13.769Z,2.17
2022-10-06T07:08:45.251Z,2.58
2022-10-06T07:11:12.654Z,2.00
2022-10-06T07:13:40.551Z,2.10
2022-10-06T07:16:30.742Z,2.22
2022-10-06T07:19:18.296Z,1.42
2022-10-06T07:22:15.423Z,1.73
2022-10-06T07:25:01.805Z,1.88
2022-10-06T07:27:29.121Z,2.03
2022-10-06T07:29:59.149Z,2.13
2022-10-06T07:32:27.169Z,2.00
2022-10-06T07:34:54.593Z,1.40
2022-10-06T07:37:21.960Z,2.10
2022-10-06T07:39:49.582Z,2.38
2022-10-06T07:42:19.434Z,2.20
2022-10-06T07:45:08.757Z,2.60
2022-10-06T07:47:38.358Z,1.45
2022-10-06T07:50:08.963Z,1.90
2022-10-06T07:52:39.451Z,1.67
2022-10-06T07:55:58.139Z,1.30
2022-10-06T07:58:25.428Z,1.40
2022-10-06T08:00:53.111Z,1.88
2022-10-06T08:03:21.138Z,1.30
2022-10-06T08:05:57.996Z,1.67
2022-10-06T08:08:25.444Z,1.00
2022-10-06T08:10:58.329Z,1.90
2022-10-06T08:13:27.688Z,1.60
2022-10-06T08:15:56.697Z,1.65
2022-10-06T08:18:45.443Z,1.10
2022-10-06T08:21:39.871Z,1.00
2022-10-06T08:24:07.181Z,1.45
2022-10-06T08:26:34.549Z,1.25
2022-10-06T08:31:31.255Z,1.33
2022-10-06T08:33:58.587Z,1.35
2022-10-06T08:36:31.997Z,2.08
2022-10-06T08:39:00.152Z,1.50
2022-10-06T08:41:29.154Z,1.25
2022-10-06T08:44:19.171Z,1.15
2022-10-06T08:46:51.302Z,1.70
2022-10-06T08:49:22.823Z,1.63
2022-10-06T08:51:57.968Z,1.63
2022-10-06T08:54:39.660Z,1.40
2022-10-06T08:57:12.978Z,1.52
2022-10-06T08:59:41.493Z,1.73
2022-10-06T09:02:41.996Z,1.95
2022-10-06T09:05:12.700Z,1.85
2022-10-06T09:07:39.776Z,1.25
2022-10-06T09:10:07.070Z,1.70
2022-10-06T09:12:42.686Z,1.45
2022-10-06T09:15:33.940Z,1.35
2022-10-06T09:18:18.741Z,1.45
2022-10-06T09:20:54.872Z,1.63
2022-10-06T09:23:41.916Z,1.50
2022-10-06T09:26:12.620Z,1.63
2022-10-06T09:28:40.029Z,1.40
2022-10-06T09:31:34.042Z,1.70
2022-10-06T09:34:22.260Z,1.90
2022-10-06T09:37:01.759Z,2.00
2022-10-06T09:39:36.461Z,1.48
2022-10-06T09:42:12.917Z,2.03
2022-10-06T09:44:48.180Z,1.60
2022-10-06T09:47:26.827Z,1.60
2022-10-06T09:50:17.696Z,1.65
2022-10-06T09:53:05.149Z,1.75
2022-10-06T09:55:37.948Z,1.05
2022-10-06T09:58:15.780Z,1.45
2022-10-06T10:00:49.219Z,1.10
2022-10-06T10:03:16.520Z,1.30
2022-10-06T10:05:47.978Z,1.30
2022-10-06T10:08:15.081Z,1.10
2022-10-06T10:10:42.198Z,1.10
2022-10-06T10:13:24.166Z,1.20
2022-10-06T10:15:56.306Z,1.10
2022-10-06T10:18:28.928Z,1.02
2022-10-06T10:23:41.549Z,1.38
2022-10-06T10:26:46.857Z,1.33
2022-10-06T10:29:20.296Z,1.35
2022-10-06T10:32:05.781Z,1.13
2022-10-06T10:34:51.712Z,1.48
2022-10-06T10:37:24.591Z,1.00
2022-10-06T10:39:54.082Z,1.52
2022-10-06T10:42:31.427Z,1.90
2022-10-06T10:45:01.354Z,1.33
2022-10-06T10:47:28.446Z,1.42
2022-10-06T10:50:18.326Z,1.20
2022-10-06T10:52:47.452Z,1.60
2022-10-06T10:55:36.755Z,1.05
2022-10-06T10:58:20.017Z,1.15
2022-10-06T11:00:49.595Z,1.27
2022-10-06T11:03:16.795Z,1.83
2022-10-06T11:06:11.282Z,1.45
2022-10-06T11:08:51.963Z,1.35
2022-10-06T11:11:38.011Z,0.90
2022-10-06T11:14:10.774Z,1.00
2022-10-06T11:17:05.631Z,0.80
2022-10-06T11:19:52.678Z,1.00
2022-10-06T11:22:52.893Z,1.05
2022-10-06T11:25:58.660Z,1.20
2022-10-06T11:28:53.204Z,0.80
2022-10-06T11:31:29.336Z,1.25
2022-10-06T11:34:11.702Z,0.98
2022-10-06T11:36:46.792Z,1.10
2022-10-06T11:39:20.178Z,1.20
2022-10-06T11:41:53.477Z,1.25
2022-10-06T11:44:27.211Z,1.55
2022-10-06T11:46:56.867Z,1.20
2022-10-06T11:49:30.364Z,0.88
2022-10-06T11:51:59.686Z,1.20
2022-10-06T11:54:45.600Z,1.40
2022-10-06T11:57:31.038Z,1.33
2022-10-06T12:00:19.996Z,1.20
2022-10-06T12:02:47.977Z,1.25
2022-10-06T12:05:54.037Z,1.17
2022-10-06T12:08:02.636Z,1.17
2022-10-06T12:10:35.603Z,1.45
2022-10-06T12:14:12.073Z,1.02
2022-10-06T12:17:19.593Z,1.50
2022-10-06T12:19:43.918Z,1.33
2022-10-06T12:22:18.783Z,1.20
2022-10-06T12:24:54.933Z,1.30
2022-10-06T12:27:31.240Z,1.30
2022-10-06T12:29:58.595Z,1.00
2022-10-06T12:32:34.396Z,1.08
2022-10-06T12:35:03.029Z,1.67
2022-10-06T12:37:30.439Z,1.55
2022-10-06T12:43:28.571Z,1.17
2022-10-06T12:45:55.998Z,1.20
2022-10-06T12:48:29.316Z,1.33
2022-10-06T12:51:15.821Z,1.10
2022-10-06T12:53:52.400Z,1.38
2022-10-06T12:56:39.789Z,1.23
2022-10-06T12:59:25.281Z,1.60
2022-10-06T13:01:53.526Z,1.52
2022-10-06T13:04:53.073Z,1.67
2022-10-06T13:07:25.279Z,1.45
2022-10-06T13:10:11.034Z,1.58
2022-10-06T14:38:46.920Z,1.67
2022-10-06T14:41:19.491Z,1.15
2022-10-06T14:46:17.317Z,1.40
2022-10-06T14:48:57.878Z,1.17
2022-10-06T14:51:26.400Z,1.20
2022-10-06T14:53:58.179Z,1.40
2022-10-06T14:56:27.124Z,1.33
2022-10-06T14:59:03.128Z,1.50
2022-10-06T15:01:31.311Z,1.52
2022-10-06T15:03:59.735Z,1.42
2022-10-06T15:06:45.528Z,1.60
2022-10-06T15:09:12.990Z,1.20
2022-10-06T15:11:40.240Z,1.20
2022-10-06T15:14:10.738Z,1.45
2022-10-06T15:16:40.719Z,1.17
2022-10-06T15:19:09.012Z,1.30
2022-10-06T15:21:36.591Z,1.23
2022-10-06T15:24:04.632Z,1.77
2022-10-06T15:26:50.832Z,1.55
2022-10-06T15:29:18.413Z,1.33
2022-10-06T15:31:54.486Z,1.80
2022-10-06T15:34:23.487Z,0.98
2022-10-06T15:36:52.305Z,1.10
2022-10-06T15:39:20.374Z,2.50
2022-10-06T15:41:48.626Z,2.33
2022-10-06T15:44:15.980Z,1.70
2022-10-06T15:46:44.430Z,1.58
2022-10-06T15:49:13.192Z,1.35
2022-10-06T15:51:47.614Z,1.70
2022-10-06T15:54:22.316Z,1.90
2022-10-06T15:56:50.414Z,1.70
2022-10-06T15:59:19.644Z,1.13
2022-10-06T16:01:47.923Z,1.73
2022-10-06T16:04:31.288Z,1.20
2022-10-06T16:06:58.762Z,1.10
2022-10-06T16:09:27.077Z,1.48
2022-10-06T16:11:55.005Z,1.38
2022-10-06T16:14:22.590Z,1.40
2022-10-06T16:16:50.114Z,1.83
2022-10-06T16:19:18.174Z,1.00
2022-10-06T16:21:47.540Z,1.17
2022-10-06T16:24:14.974Z,1.45
2022-10-06T16:26:42.393Z,1.25
2022-10-06T16:29:09.914Z,2.03
2022-10-06T16:31:37.053Z,1.77
2022-10-06T16:34:04.563Z,1.23
2022-10-06T16:36:31.747Z,1.52
2022-10-06T16:38:58.786Z,1.27
2022-10-06T16:41:26.049Z,1.35
2022-10-06T16:43:54.421Z,1.58
2022-10-06T16:46:25.438Z,1.10
2022-10-06T16:48:53.501Z,1.75
2022-10-06T16:51:20.710Z,1.40
2022-10-06T16:53:49.055Z,1.63
2022-10-06T16:56:20.898Z,1.38
2022-10-06T16:59:07.879Z,1.90
2022-10-06T17:01:36.671Z,1.58
2022-10-06T17:04:04.003Z,2.10
2022-10-06T17:06:31.880Z,1.35
2022-10-06T17:08:58.968Z,2.38
2022-10-06T17:11:26.249Z,1.92
2022-10-06T17:13:54.753Z,1.90
2022-10-06T17:16:23.137Z,2.30
2022-10-06T17:18:51.319Z,1.63
2022-10-06T17:21:43.299Z,2.38
2022-10-06T17:24:06.038Z,1.92
2022-10-06T17:26:34.296Z,1.88
2022-10-06T17:29:02.324Z,2.50
2022-10-06T17:31:32.463Z,1.98
2022-10-06T17:33:59.818Z,1.60
2022-10-06T17:36:27.159Z,2.15
2022-10-06T17:39:01.135Z,1.55
2022-10-06T17:41:32.715Z,2.20
2022-10-06T17:44:03.967Z,2.17
2022-10-06T17:46:32.140Z,2.30
2022-10-06T17:49:01.699Z,2.15
2022-10-06T17:51:28.983Z,2.17
2022-10-06T17:53:56.930Z,1.92
2022-10-06T17:56:27.709Z,2.00
2022-10-06T17:58:55.891Z,1.77
2022-10-06T18:01:23.999Z,2.22
2022-10-06T18:03:57.829Z,2.05
2022-10-06T18:06:26.886Z,2.88
2022-10-06T18:08:55.021Z,3.10
2022-10-06T18:11:39.293Z,2.42
2022-10-06T18:14:09.784Z,9.45
2022-10-06T18:16:39.083Z,3.97
2022-10-06T18:19:07.912Z,3.08
2022-10-06T18:21:38.416Z,2.95
2022-10-06T18:24:06.602Z,4.53
2022-10-06T18:26:36.394Z,5.80
2022-10-06T18:29:03.644Z,6.25
2022-10-06T18:31:30.875Z,6.13
2022-10-06T18:36:46.814Z,6.45
2022-10-06T18:39:13.970Z,6.35
2022-10-06T18:41:41.179Z,5.80
2022-10-06T18:44:09.194Z,6.32
2022-10-06T18:46:54.963Z,7.07
2022-10-06T18:49:23.056Z,6.20
2022-10-06T18:51:55.912Z,6.40
2022-10-06T18:54:30.255Z,5.68
2022-10-06T18:56:57.654Z,5.65
2022-10-06T18:59:32.666Z,6.88
2022-10-06T19:02:00.550Z,7.68
2022-10-06T19:04:27.850Z,6.88
2022-10-06T19:06:56.445Z,6.47
2022-10-06T19:09:24.504Z,6.57
2022-10-06T19:11:53.154Z,6.47
2022-10-06T19:14:21.898Z,6.30
2022-10-06T19:16:52.167Z,6.05
2022-10-06T19:19:21.829Z,4.97
2022-10-06T19:21:50.257Z,5.00
2022-10-06T19:24:18.423Z,4.38
2022-10-06T19:26:46.376Z,4.38
2022-10-06T19:29:14.346Z,4.05
2022-10-06T19:31:43.218Z,3.35
2022-10-06T19:34:12.817Z,3.63
2022-10-06T19:36:41.092Z,3.47
2022-10-06T19:39:12.258Z,3.13
2022-10-06T19:41:58.842Z,3.70
2022-10-06T19:44:26.541Z,3.42
2022-10-06T19:46:55.078Z,3.10
2022-10-06T19:49:22.921Z,2.75
2022-10-06T19:51:50.183Z,3.65
2022-10-06T19:54:18.661Z,3.65
2022-10-06T19:56:46.255Z,3.33
2022-10-06T19:59:15.056Z,3.15
2022-10-06T20:01:42.307Z,3.53
2022-10-06T20:04:09.644Z,3.25
2022-10-06T20:06:37.263Z,3.95
2022-10-06T20:09:08.793Z,3.28
2022-10-06T20:11:37.355Z,3.40
2022-10-06T20:14:05.986Z,3.10
2022-10-06T20:16:33.288Z,3.45
2022-10-06T20:19:00.496Z,3.65
2022-10-06T20:21:31.030Z,2.70
2022-10-06T20:23:59.261Z,3.25
2022-10-06T20:26:29.188Z,2.45
2022-10-06T20:28:56.278Z,3.70
2022-10-06T20:31:24.114Z,2.70
2022-10-06T20:33:51.303Z,3.30
2022-10-06T20:36:19.047Z,3.40
2022-10-06T20:39:05.241Z,3.80
2022-10-06T20:41:32.714Z,4.97
2022-10-06T20:44:00.358Z,4.43
2022-10-06T20:46:31.496Z,3.58
2022-10-06T20:49:03.652Z,3.65
2022-10-06T20:51:32.168Z,3.15
2022-10-06T20:53:59.705Z,3.40
2022-10-06T20:56:27.211Z,4.85
2022-10-06T20:58:55.027Z,3.85
2022-10-06T21:01:22.408Z,3.10
2022-10-06T21:03:54.510Z,3.17
2022-10-06T21:06:23.700Z,2.88
2022-10-06T21:08:51.505Z,3.38
2022-10-06T21:11:20.899Z,2.75
2022-10-06T21:13:54.230Z,4.00
2022-10-06T21:16:32.856Z,3.85
2022-10-06T21:19:01.809Z,4.05
2022-10-06T21:21:28.488Z,4.53
2022-10-06T21:23:55.125Z,4.95
2022-10-06T21:26:23.794Z,4.10
2022-10-06T21:28:53.533Z,4.10
2022-10-06T21:31:25.837Z,4.05
2022-10-06T21:33:54.269Z,4.47
2022-10-06T21:36:26.015Z,4.50
2022-10-06T21:38:53.885Z,3.63
2022-10-06T21:41:32.484Z,3.75
2022-10-06T21:44:03.656Z,3.85
2022-10-06T21:46:33.287Z,4.10
2022-10-06T21:49:01.140Z,3.47
2022-10-06T21:51:29.639Z,4.13
2022-10-06T21:53:57.489Z,3.33
2022-10-06T21:56:25.248Z,5.22
2022-10-06T21:58:53.856Z,4.35
2022-10-06T22:01:23.518Z,4.68
2022-10-06T22:03:50.688Z,4.45
2022-10-06T22:06:19.651Z,5.38
2022-10-06T22:08:46.895Z,5.35
2022-10-06T22:11:24.392Z,5.28
2022-10-06T22:13:54.351Z,5.68
2022-10-06T22:16:23.659Z,5.45
2022-10-06T22:18:50.429Z,5.00
2022-10-06T22:21:21.276Z,4.35
2022-10-06T22:23:54.479Z,4.07
2022-10-06T22:26:21.140Z,5.22
2022-10-06T22:28:50.515Z,4.65
2022-10-06T22:31:20.944Z,4.40
2022-10-06T22:33:53.934Z,4.75
2022-10-06T22:36:20.575Z,5.15
2022-10-06T22:38:47.450Z,4.25
2022-10-06T22:41:14.700Z,3.97
2022-10-06T22:43:41.383Z,3.60
2022-10-06T22:46:09.190Z,3.40
2022-10-06T22:48:36.202Z,3.55
2022-10-06T22:51:03.378Z,3.83
2022-10-06T22:53:31.192Z,3.53
2022-10-06T22:55:59.137Z,4.35
2022-10-06T22:58:26.371Z,3.83
2022-10-06T23:00:53.599Z,4.50
2022-10-06T23:03:20.917Z,2.97
2022-10-06T23:05:59.185Z,4.00
2022-10-06T23:08:29.054Z,3.00
2022-10-06T23:11:08.266Z,3.30
2022-10-06T23:13:35.188Z,3.53
2022-10-06T23:16:07.339Z,3.72
2022-10-06T23:18:35.786Z,3.92
2022-10-06T23:21:22.189Z,4.03
2022-10-06T23:23:54.510Z,3.85
2022-10-06T23:26:22.670Z,4.22
2022-10-06T23:28:55.121Z,4.10
2022-10-06T23:31:22.305Z,3.20
2022-10-06T23:33:49.205Z,3.75
2022-10-06T23:36:15.923Z,3.58
2022-10-06T23:38:42.642Z,3.60
2022-10-06T23:41:09.344Z,4.03
2022-10-06T23:43:36.233Z,3.58
2022-10-06T23:46:03.821Z,3.60
2022-10-06T23:48:30.715Z,4.10
2022-10-06T23:51:06.403Z,4.18
2022-10-06T23:53:34.333Z,3.80
2022-10-06T23:56:00.992Z,4.40
2022-10-06T23:58:28.326Z,4.22
